sensor_id;sensor_type;location;lat;lon;timestamp;pressure;altitude;pressure_sealevel;temperature;humidity
7168;BME280;3625;51.762;14.320;2023-03-01T00:00:09;102225.50;;;-3.45;100.00
7168;BME280;3625;51.762;14.320;2023-03-01T00:02:38;102216.84;;;-3.45;100.00
7168;BME280;3625;51.762;14.320;2023-03-01T00:05:07;102213.56;;;-3.43;100.00
7168;BME280;3625;51.762;14.320;2023-03-01T00:07:37;102203.06;;;-3.31;100.00
7168;BME280;3625;51.762;14.320;2023-03-01T00:10:07;102206.94;;;-3.24;100.00
7168;BME280;3625;51.762;14.320;2023-03-01T00:12:36;102210.75;;;-3.32;100.00
7168;BME280;3625;51.762;14.320;2023-03-01T00:15:05;102190.00;;;-3.47;100.00
7168;BME280;3625;51.762;14.320;2023-03-01T00:17:34;102203.09;;;-3.44;100.00
7168;BME280;3625;51.762;14.320;2023-03-01T00:20:03;102199.13;;;-3.39;100.00
7168;BME280;3625;51.762;14.320;2023-03-01T00:22:35;102197.72;;;-3.34;100.00
7168;BME280;3625;51.762;14.320;2023-03-01T00:25:05;102191.97;;;-3.43;100.00
7168;BME280;3625;51.762;14.320;2023-03-01T00:27:34;102191.22;;;-3.55;100.00
7168;BME280;3625;51.762;14.320;2023-03-01T00:30:03;102156.88;;;-3.81;100.00
7168;BME280;3625;51.762;14.320;2023-03-01T00:32:32;102185.84;;;-3.58;100.00
7168;BME280;3625;51.762;14.320;2023-03-01T00:35:01;102125.97;;;-3.92;100.00
7168;BME280;3625;51.762;14.320;2023-03-01T00:37:30;102175.72;;;-3.68;100.00
7168;BME280;3625;51.762;14.320;2023-03-01T00:39:58;102173.56;;;-3.75;100.00
7168;BME280;3625;51.762;14.320;2023-03-01T00:42:28;102106.72;;;-4.10;100.00
7168;BME280;3625;51.762;14.320;2023-03-01T00:44:57;102175.25;;;-3.76;100.00
7168;BME280;3625;51.762;14.320;2023-03-01T00:47:28;102180.94;;;-3.82;100.00
7168;BME280;3625;51.762;14.320;2023-03-01T00:49:57;102170.41;;;-3.85;100.00
7168;BME280;3625;51.762;14.320;2023-03-01T00:52:27;102177.16;;;-3.87;100.00
7168;BME280;3625;51.762;14.320;2023-03-01T00:54:56;102172.88;;;-3.86;100.00
7168;BME280;3625;51.762;14.320;2023-03-01T00:57:25;102180.94;;;-3.82;100.00
7168;BME280;3625;51.762;14.320;2023-03-01T00:59:55;102182.31;;;-3.73;100.00
7168;BME280;3625;51.762;14.320;2023-03-01T01:02:25;102169.56;;;-3.70;100.00
7168;BME280;3625;51.762;14.320;2023-03-01T01:04:54;102168.06;;;-3.67;100.00
7168;BME280;3625;51.762;14.320;2023-03-01T01:07:23;102171.75;;;-3.63;100.00
7168;BME280;3625;51.762;14.320;2023-03-01T01:09:51;102171.03;;;-3.61;100.00
7168;BME280;3625;51.762;14.320;2023-03-01T01:12:20;102169.53;;;-3.57;100.00
7168;BME280;3625;51.762;14.320;2023-03-01T01:14:49;102170.22;;;-3.60;100.00
7168;BME280;3625;51.762;14.320;2023-03-01T01:17:19;102171.75;;;-3.63;100.00
7168;BME280;3625;51.762;14.320;2023-03-01T01:19:48;102173.13;;;-3.68;100.00
7168;BME280;3625;51.762;14.320;2023-03-01T01:22:16;102166.97;;;-3.70;100.00
7168;BME280;3625;51.762;14.320;2023-03-01T01:24:45;102162.91;;;-3.67;100.00
7168;BME280;3625;51.762;14.320;2023-03-01T01:27:14;102160.09;;;-3.70;100.00
7168;BME280;3625;51.762;14.320;2023-03-01T01:29:42;102164.22;;;-3.73;100.00
7168;BME280;3625;51.762;14.320;2023-03-01T01:32:11;102154.28;;;-3.81;100.00
7168;BME280;3625;51.762;14.320;2023-03-01T01:34:43;102156.78;;;-3.82;100.00
7168;BME280;3625;51.762;14.320;2023-03-01T01:37:14;102152.28;;;-3.85;100.00
7168;BME280;3625;51.762;14.320;2023-03-01T01:39:43;102147.91;;;-3.86;100.00
7168;BME280;3625;51.762;14.320;2023-03-01T01:42:15;102148.63;;;-3.88;100.00
7168;BME280;3625;51.762;14.320;2023-03-01T01:44:47;102150.31;;;-3.89;100.00
7168;BME280;3625;51.762;14.320;2023-03-01T01:47:19;102082.88;;;-4.20;100.00
7168;BME280;3625;51.762;14.320;2023-03-01T01:49:53;102138.78;;;-3.94;100.00
7168;BME280;3625;51.762;14.320;2023-03-01T01:52:27;102136.72;;;-3.99;100.00
7168;BME280;3625;51.762;14.320;2023-03-01T01:55:03;102137.41;;;-4.02;100.00
7168;BME280;3625;51.762;14.320;2023-03-01T01:57:39;101851.06;;;-5.60;100.00
7168;BME280;3625;51.762;14.320;2023-03-01T02:00:14;102129.97;;;-4.10;100.00
7168;BME280;3625;51.762;14.320;2023-03-01T02:02:47;102123.72;;;-4.14;100.00
7168;BME280;3625;51.762;14.320;2023-03-01T02:05:30;102107.94;;;-4.19;100.00
7168;BME280;3625;51.762;14.320;2023-03-01T02:08:01;102058.50;;;-4.51;100.00
7168;BME280;3625;51.762;14.320;2023-03-01T02:10:34;102110.19;;;-4.23;100.00
7168;BME280;3625;51.762;14.320;2023-03-01T02:13:03;102110.81;;;-4.27;100.00
7168;BME280;3625;51.762;14.320;2023-03-01T02:15:34;102114.00;;;-4.31;100.00
7168;BME280;3625;51.762;14.320;2023-03-01T02:18:04;102111.03;;;-4.37;100.00
7168;BME280;3625;51.762;14.320;2023-03-01T02:20:58;102107.94;;;-4.45;100.00
7168;BME280;3625;51.762;14.320;2023-03-01T02:23:32;102078.97;;;-4.67;100.00
7168;BME280;3625;51.762;14.320;2023-03-01T02:26:07;102055.22;;;-4.88;100.00
7168;BME280;3625;51.762;14.320;2023-03-01T02:28:42;102120.28;;;-4.54;100.00
7168;BME280;3625;51.762;14.320;2023-03-01T02:31:16;102113.72;;;-4.62;100.00
7168;BME280;3625;51.762;14.320;2023-03-01T02:34:06;102120.97;;;-4.70;100.00
7168;BME280;3625;51.762;14.320;2023-03-01T02:36:38;101929.44;;;-5.83;100.00
7168;BME280;3625;51.762;14.320;2023-03-01T02:39:15;102102.97;;;-4.81;100.00
7168;BME280;3625;51.762;14.320;2023-03-01T02:41:50;102093.84;;;-4.89;100.00
7168;BME280;3625;51.762;14.320;2023-03-01T02:44:21;101959.41;;;-5.72;100.00
7168;BME280;3625;51.762;14.320;2023-03-01T02:46:53;102104.94;;;-4.90;100.00
7168;BME280;3625;51.762;14.320;2023-03-01T02:49:26;102119.13;;;-4.84;100.00
7168;BME280;3625;51.762;14.320;2023-03-01T02:52:20;102118.19;;;-4.86;100.00
7168;BME280;3625;51.762;14.320;2023-03-01T02:54:58;102079.81;;;-5.06;100.00
7168;BME280;3625;51.762;14.320;2023-03-01T02:57:30;102115.16;;;-4.92;100.00
7168;BME280;3625;51.762;14.320;2023-03-01T03:00:08;102121.16;;;-4.93;100.00
7168;BME280;3625;51.762;14.320;2023-03-01T03:02:49;102119.03;;;-4.99;100.00
7168;BME280;3625;51.762;14.320;2023-03-01T03:05:24;102122.09;;;-5.04;100.00
7168;BME280;3625;51.762;14.320;2023-03-01T03:07:56;102118.91;;;-5.13;100.00
7168;BME280;3625;51.762;14.320;2023-03-01T03:10:29;102123.75;;;-5.18;100.00
7168;BME280;3625;51.762;14.320;2023-03-01T03:13:05;102120.97;;;-5.21;100.00
7168;BME280;3625;51.762;14.320;2023-03-01T03:15:36;102120.09;;;-5.21;100.00
7168;BME280;3625;51.762;14.320;2023-03-01T03:18:08;102122.28;;;-5.14;100.00
7168;BME280;3625;51.762;14.320;2023-03-01T03:20:38;102096.66;;;-5.24;100.00
7168;BME280;3625;51.762;14.320;2023-03-01T03:23:09;102119.19;;;-5.09;100.00
7168;BME280;3625;51.762;14.320;2023-03-01T03:25:40;102114.81;;;-5.10;100.00
7168;BME280;3625;51.762;14.320;2023-03-01T03:28:08;102113.47;;;-5.05;100.00
7168;BME280;3625;51.762;14.320;2023-03-01T03:30:41;101977.06;;;-5.64;100.00
7168;BME280;3625;51.762;14.320;2023-03-01T03:33:11;102109.44;;;-4.88;100.00
7168;BME280;3625;51.762;14.320;2023-03-01T03:35:44;102103.09;;;-4.93;100.00
7168;BME280;3625;51.762;14.320;2023-03-01T03:38:19;102055.81;;;-5.05;100.00
7168;BME280;3625;51.762;14.320;2023-03-01T03:40:52;101879.50;;;-5.98;100.00
7168;BME280;3625;51.762;14.320;2023-03-01T03:43:33;102071.91;;;-4.96;100.00
7168;BME280;3625;51.762;14.320;2023-03-01T03:46:04;102102.38;;;-4.90;100.00
7168;BME280;3625;51.762;14.320;2023-03-01T03:48:35;102099.28;;;-4.98;100.00
7168;BME280;3625;51.762;14.320;2023-03-01T03:51:04;102093.50;;;-5.07;100.00
7168;BME280;3625;51.762;14.320;2023-03-01T03:53:33;102093.91;;;-5.14;100.00
7168;BME280;3625;51.762;14.320;2023-03-01T03:56:02;102100.16;;;-5.11;100.00
7168;BME280;3625;51.762;14.320;2023-03-01T03:58:33;102100.06;;;-5.12;100.00
7168;BME280;3625;51.762;14.320;2023-03-01T04:01:03;101985.75;;;-5.76;100.00
7168;BME280;3625;51.762;14.320;2023-03-01T04:03:33;102093.03;;;-4.75;100.00
7168;BME280;3625;51.762;14.320;2023-03-01T04:06:03;102097.13;;;-4.66;100.00
7168;BME280;3625;51.762;14.320;2023-03-01T04:08:33;102104.47;;;-4.72;100.00
7168;BME280;3625;51.762;14.320;2023-03-01T04:11:04;102099.38;;;-4.83;100.00
7168;BME280;3625;51.762;14.320;2023-03-01T04:13:47;102090.75;;;-4.97;100.00
7168;BME280;3625;51.762;14.320;2023-03-01T04:16:17;102093.03;;;-5.02;100.00
7168;BME280;3625;51.762;14.320;2023-03-01T04:18:46;102091.03;;;-5.06;100.00
7168;BME280;3625;51.762;14.320;2023-03-01T04:21:15;102088.34;;;-5.07;100.00
7168;BME280;3625;51.762;14.320;2023-03-01T04:23:46;102053.19;;;-5.32;100.00
7168;BME280;3625;51.762;14.320;2023-03-01T04:26:15;102093.13;;;-5.13;100.00
7168;BME280;3625;51.762;14.320;2023-03-01T04:28:43;102096.47;;;-5.14;100.00
7168;BME280;3625;51.762;14.320;2023-03-01T04:31:17;102091.88;;;-5.18;100.00
7168;BME280;3625;51.762;14.320;2023-03-01T04:33:50;102093.50;;;-5.20;100.00
7168;BME280;3625;51.762;14.320;2023-03-01T04:36:23;102064.06;;;-5.36;100.00
7168;BME280;3625;51.762;14.320;2023-03-01T04:38:52;102082.75;;;-5.26;100.00
7168;BME280;3625;51.762;14.320;2023-03-01T04:41:24;102050.03;;;-5.52;100.00
7168;BME280;3625;51.762;14.320;2023-03-01T04:43:53;102093.81;;;-5.41;100.00
7168;BME280;3625;51.762;14.320;2023-03-01T04:46:23;101829.31;;;-6.92;100.00
7168;BME280;3625;51.762;14.320;2023-03-01T04:48:52;102094.88;;;-5.50;100.00
7168;BME280;3625;51.762;14.320;2023-03-01T04:51:21;102091.22;;;-5.54;100.00
7168;BME280;3625;51.762;14.320;2023-03-01T04:53:50;102096.69;;;-5.36;100.00
7168;BME280;3625;51.762;14.320;2023-03-01T04:56:19;102090.91;;;-5.20;100.00
7168;BME280;3625;51.762;14.320;2023-03-01T04:58:53;102086.94;;;-5.28;100.00
7168;BME280;3625;51.762;14.320;2023-03-01T05:01:23;102087.28;;;-5.36;100.00
7168;BME280;3625;51.762;14.320;2023-03-01T05:03:52;102080.03;;;-5.41;100.00
7168;BME280;3625;51.762;14.320;2023-03-01T05:06:21;102076.34;;;-5.45;100.00
7168;BME280;3625;51.762;14.320;2023-03-01T05:08:50;102071.13;;;-5.46;100.00
7168;BME280;3625;51.762;14.320;2023-03-01T05:11:19;102062.78;;;-5.42;100.00
7168;BME280;3625;51.762;14.320;2023-03-01T05:13:48;102067.38;;;-5.38;100.00
7168;BME280;3625;51.762;14.320;2023-03-01T05:16:23;102068.03;;;-5.41;100.00
7168;BME280;3625;51.762;14.320;2023-03-01T05:18:52;102074.00;;;-5.42;100.00
7168;BME280;3625;51.762;14.320;2023-03-01T05:21:22;102065.06;;;-5.47;100.00
7168;BME280;3625;51.762;14.320;2023-03-01T05:23:51;102068.03;;;-5.54;100.00
7168;BME280;3625;51.762;14.320;2023-03-01T05:26:20;102070.59;;;-5.54;100.00
7168;BME280;3625;51.762;14.320;2023-03-01T05:28:55;102072.28;;;-5.54;100.00
7168;BME280;3625;51.762;14.320;2023-03-01T05:31:28;102068.59;;;-5.58;100.00
7168;BME280;3625;51.762;14.320;2023-03-01T05:33:58;102073.84;;;-5.56;100.00
7168;BME280;3625;51.762;14.320;2023-03-01T05:36:27;102071.28;;;-5.56;100.00
7168;BME280;3625;51.762;14.320;2023-03-01T05:38:56;102056.44;;;-5.72;100.00
7168;BME280;3625;51.762;14.320;2023-03-01T05:41:25;102079.69;;;-5.59;100.00
7168;BME280;3625;51.762;14.320;2023-03-01T05:43:54;102076.22;;;-5.59;100.00
7168;BME280;3625;51.762;14.320;2023-03-01T05:46:24;102076.09;;;-5.61;100.00
7168;BME280;3625;51.762;14.320;2023-03-01T05:48:54;102074.41;;;-5.60;100.00
7168;BME280;3625;51.762;14.320;2023-03-01T05:51:24;102081.69;;;-5.55;100.00
7168;BME280;3625;51.762;14.320;2023-03-01T05:53:53;102087.03;;;-5.52;100.00
7168;BME280;3625;51.762;14.320;2023-03-01T05:56:22;102079.19;;;-5.53;100.00
7168;BME280;3625;51.762;14.320;2023-03-01T05:58:53;102088.66;;;-5.54;100.00
7168;BME280;3625;51.762;14.320;2023-03-01T06:01:22;102080.81;;;-5.55;100.00
7168;BME280;3625;51.762;14.320;2023-03-01T06:03:54;102070.59;;;-5.54;100.00
7168;BME280;3625;51.762;14.320;2023-03-01T06:06:42;102077.63;;;-5.51;100.00
7168;BME280;3625;51.762;14.320;2023-03-01T06:09:18;102072.78;;;-5.47;100.00
7168;BME280;3625;51.762;14.320;2023-03-01T06:11:46;102069.72;;;-5.41;100.00
7168;BME280;3625;51.762;14.320;2023-03-01T06:14:15;102068.25;;;-5.38;100.00
7168;BME280;3625;51.762;14.320;2023-03-01T06:16:45;102067.09;;;-5.29;100.00
7168;BME280;3625;51.762;14.320;2023-03-01T06:19:15;102064.81;;;-5.25;100.00
7168;BME280;3625;51.762;14.320;2023-03-01T06:21:55;102065.22;;;-5.19;100.00
7168;BME280;3625;51.762;14.320;2023-03-01T06:24:24;102065.63;;;-5.13;100.00
7168;BME280;3625;51.762;14.320;2023-03-01T06:26:53;102061.06;;;-5.04;100.00
7168;BME280;3625;51.762;14.320;2023-03-01T06:29:24;102066.75;;;-4.96;100.00
7168;BME280;3625;51.762;14.320;2023-03-01T06:31:55;102078.34;;;-4.89;100.00
7168;BME280;3625;51.762;14.320;2023-03-01T06:34:25;102066.16;;;-4.79;100.00
7168;BME280;3625;51.762;14.320;2023-03-01T06:36:56;102076.19;;;-4.70;100.00
7168;BME280;3625;51.762;14.320;2023-03-01T06:39:25;102068.81;;;-4.64;100.00
7168;BME280;3625;51.762;14.320;2023-03-01T06:41:55;102069.31;;;-4.57;100.00
7168;BME280;3625;51.762;14.320;2023-03-01T06:44:24;102076.66;;;-4.49;100.00
7168;BME280;3625;51.762;14.320;2023-03-01T06:46:53;102075.47;;;-4.41;100.00
7168;BME280;3625;51.762;14.320;2023-03-01T06:49:23;102069.78;;;-4.36;100.00
7168;BME280;3625;51.762;14.320;2023-03-01T06:51:59;102071.28;;;-4.26;100.00
7168;BME280;3625;51.762;14.320;2023-03-01T06:54:28;102065.97;;;-4.14;100.00
7168;BME280;3625;51.762;14.320;2023-03-01T06:56:57;102062.25;;;-4.05;100.00
7168;BME280;3625;51.762;14.320;2023-03-01T06:59:25;102061.44;;;-3.91;100.00
7168;BME280;3625;51.762;14.320;2023-03-01T07:01:54;102061.47;;;-3.76;100.00
7168;BME280;3625;51.762;14.320;2023-03-01T07:04:27;101893.00;;;-4.69;100.00
7168;BME280;3625;51.762;14.320;2023-03-01T07:07:01;101941.72;;;-4.32;100.00
7168;BME280;3625;51.762;14.320;2023-03-01T07:09:30;102076.78;;;-3.51;100.00
7168;BME280;3625;51.762;14.320;2023-03-01T07:12:02;102071.16;;;-3.44;100.00
7168;BME280;3625;51.762;14.320;2023-03-01T07:14:31;102070.72;;;-3.37;100.00
7168;BME280;3625;51.762;14.320;2023-03-01T07:17:05;102068.53;;;-3.31;100.00
7168;BME280;3625;51.762;14.320;2023-03-01T07:19:38;102068.78;;;-3.26;100.00
7168;BME280;3625;51.762;14.320;2023-03-01T07:22:08;102068.44;;;-3.18;100.00
7168;BME280;3625;51.762;14.320;2023-03-01T07:24:37;102072.19;;;-3.13;100.00
7168;BME280;3625;51.762;14.320;2023-03-01T07:27:06;102076.84;;;-3.07;100.00
7168;BME280;3625;51.762;14.320;2023-03-01T07:29:39;102082.44;;;-2.99;100.00
7168;BME280;3625;51.762;14.320;2023-03-01T07:32:08;102082.19;;;-2.89;100.00
7168;BME280;3625;51.762;14.320;2023-03-01T07:34:42;102082.81;;;-2.79;100.00
7168;BME280;3625;51.762;14.320;2023-03-01T07:37:11;102084.94;;;-2.72;100.00
7168;BME280;3625;51.762;14.320;2023-03-01T07:39:44;102081.00;;;-2.65;100.00
7168;BME280;3625;51.762;14.320;2023-03-01T07:42:13;102083.22;;;-2.56;100.00
7168;BME280;3625;51.762;14.320;2023-03-01T07:44:49;102091.59;;;-2.46;100.00
7168;BME280;3625;51.762;14.320;2023-03-01T07:47:19;102086.66;;;-2.26;100.00
7168;BME280;3625;51.762;14.320;2023-03-01T07:50:05;102084.31;;;-2.06;100.00
7168;BME280;3625;51.762;14.320;2023-03-01T07:52:34;102073.06;;;-1.90;100.00
7168;BME280;3625;51.762;14.320;2023-03-01T07:55:05;102077.22;;;-1.77;100.00
7168;BME280;3625;51.762;14.320;2023-03-01T07:57:34;102080.72;;;-1.61;100.00
7168;BME280;3625;51.762;14.320;2023-03-01T08:00:07;101991.78;;;-2.07;100.00
7168;BME280;3625;51.762;14.320;2023-03-01T08:02:42;101993.66;;;-1.88;100.00
7168;BME280;3625;51.762;14.320;2023-03-01T08:05:12;102077.06;;;-1.32;100.00
7168;BME280;3625;51.762;14.320;2023-03-01T08:07:44;102077.66;;;-1.20;100.00
7168;BME280;3625;51.762;14.320;2023-03-01T08:10:12;102075.63;;;-1.09;100.00
7168;BME280;3625;51.762;14.320;2023-03-01T08:12:43;102079.50;;;-1.01;100.00
7168;BME280;3625;51.762;14.320;2023-03-01T08:15:13;102078.50;;;-0.87;100.00
7168;BME280;3625;51.762;14.320;2023-03-01T08:17:46;102079.34;;;-0.70;100.00
7168;BME280;3625;51.762;14.320;2023-03-01T08:20:18;102074.16;;;-0.52;100.00
7168;BME280;3625;51.762;14.320;2023-03-01T08:22:50;102076.34;;;-0.42;100.00
7168;BME280;3625;51.762;14.320;2023-03-01T08:25:19;102077.03;;;-0.28;100.00
7168;BME280;3625;51.762;14.320;2023-03-01T08:27:50;102071.03;;;-0.08;100.00
7168;BME280;3625;51.762;14.320;2023-03-01T08:30:19;102075.72;;;-0.01;100.00
7168;BME280;3625;51.762;14.320;2023-03-01T08:32:51;102063.88;;;0.06;100.00
7168;BME280;3625;51.762;14.320;2023-03-01T08:35:22;102069.91;;;0.24;100.00
7168;BME280;3625;51.762;14.320;2023-03-01T08:37:51;102071.97;;;0.31;100.00
7168;BME280;3625;51.762;14.320;2023-03-01T08:40:20;102068.81;;;0.38;100.00
7168;BME280;3625;51.762;14.320;2023-03-01T08:42:48;102069.16;;;0.46;100.00
7168;BME280;3625;51.762;14.320;2023-03-01T08:45:17;102067.66;;;0.51;100.00
7168;BME280;3625;51.762;14.320;2023-03-01T08:47:46;102067.84;;;0.55;100.00
7168;BME280;3625;51.762;14.320;2023-03-01T08:50:15;102065.72;;;0.66;100.00
7168;BME280;3625;51.762;14.320;2023-03-01T08:52:45;102065.09;;;0.71;100.00
7168;BME280;3625;51.762;14.320;2023-03-01T08:55:14;102065.00;;;0.89;100.00
7168;BME280;3625;51.762;14.320;2023-03-01T08:57:44;102067.53;;;0.88;100.00
7168;BME280;3625;51.762;14.320;2023-03-01T09:00:13;102062.72;;;0.97;100.00
7168;BME280;3625;51.762;14.320;2023-03-01T09:02:44;102072.94;;;1.13;100.00
7168;BME280;3625;51.762;14.320;2023-03-01T09:05:13;102076.81;;;1.23;100.00
7168;BME280;3625;51.762;14.320;2023-03-01T09:07:42;102064.97;;;1.29;100.00
7168;BME280;3625;51.762;14.320;2023-03-01T09:10:12;102071.31;;;1.36;100.00
7168;BME280;3625;51.762;14.320;2023-03-01T09:12:41;102073.25;;;1.41;100.00
7168;BME280;3625;51.762;14.320;2023-03-01T09:15:10;102068.34;;;1.49;100.00
7168;BME280;3625;51.762;14.320;2023-03-01T09:17:39;102068.03;;;1.62;97.92
7168;BME280;3625;51.762;14.320;2023-03-01T09:20:09;102068.47;;;1.73;97.33
7168;BME280;3625;51.762;14.320;2023-03-01T09:22:38;102067.22;;;1.85;96.48
7168;BME280;3625;51.762;14.320;2023-03-01T09:25:07;101944.00;;;1.03;94.15
7168;BME280;3625;51.762;14.320;2023-03-01T09:27:38;102035.66;;;1.57;92.73
7168;BME280;3625;51.762;14.320;2023-03-01T09:30:08;102046.28;;;1.62;93.62
7168;BME280;3625;51.762;14.320;2023-03-01T09:32:37;102068.78;;;1.82;93.56
7168;BME280;3625;51.762;14.320;2023-03-01T09:35:10;102068.09;;;1.86;93.10
7168;BME280;3625;51.762;14.320;2023-03-01T09:37:39;102025.63;;;1.68;91.82
7168;BME280;3625;51.762;14.320;2023-03-01T09:40:16;102066.19;;;2.04;93.10
7168;BME280;3625;51.762;14.320;2023-03-01T09:42:56;102067.31;;;2.11;89.63
7168;BME280;3625;51.762;14.320;2023-03-01T09:45:35;102056.31;;;2.19;90.53
7168;BME280;3625;51.762;14.320;2023-03-01T09:48:16;102017.38;;;2.02;88.99
7168;BME280;3625;51.762;14.320;2023-03-01T09:50:50;102057.41;;;2.24;87.90
7168;BME280;3625;51.762;14.320;2023-03-01T09:53:23;101854.16;;;1.16;87.35
7168;BME280;3625;51.762;14.320;2023-03-01T09:56:03;102007.34;;;2.12;83.70
7168;BME280;3625;51.762;14.320;2023-03-01T09:58:44;102000.06;;;2.04;85.52
7168;BME280;3625;51.762;14.320;2023-03-01T10:01:29;102032.50;;;2.34;85.57
7168;BME280;3625;51.762;14.320;2023-03-01T10:04:17;101964.41;;;2.04;86.68
7168;BME280;3625;51.762;14.320;2023-03-01T10:07:07;102040.44;;;2.61;87.97
7168;BME280;3625;51.762;14.320;2023-03-01T10:09:45;102024.75;;;2.61;87.70
7168;BME280;3625;51.762;14.320;2023-03-01T10:12:18;101948.66;;;2.26;84.77
7168;BME280;3625;51.762;14.320;2023-03-01T10:15:03;102036.81;;;2.81;85.62
7168;BME280;3625;51.762;14.320;2023-03-01T10:17:39;102036.16;;;2.88;79.58
7168;BME280;3625;51.762;14.320;2023-03-01T10:20:19;102039.09;;;2.97;79.25
7168;BME280;3625;51.762;14.320;2023-03-01T10:22:49;102046.94;;;2.97;79.08
7168;BME280;3625;51.762;14.320;2023-03-01T10:25:36;101812.63;;;1.68;76.67
7168;BME280;3625;51.762;14.320;2023-03-01T10:28:17;102042.66;;;2.99;78.68
7168;BME280;3625;51.762;14.320;2023-03-01T10:30:47;102032.09;;;2.96;79.16
7168;BME280;3625;51.762;14.320;2023-03-01T10:33:21;102025.34;;;3.03;79.48
7168;BME280;3625;51.762;14.320;2023-03-01T10:35:51;102029.97;;;3.12;78.63
7168;BME280;3625;51.762;14.320;2023-03-01T10:38:20;102023.09;;;3.14;78.26
7168;BME280;3625;51.762;14.320;2023-03-01T10:40:55;101991.41;;;3.04;77.91
7168;BME280;3625;51.762;14.320;2023-03-01T10:43:28;102024.28;;;3.23;72.17
7168;BME280;3625;51.762;14.320;2023-03-01T10:46:01;102014.91;;;3.30;73.50
7168;BME280;3625;51.762;14.320;2023-03-01T10:48:30;102020.38;;;3.37;73.01
7168;BME280;3625;51.762;14.320;2023-03-01T10:51:12;102018.66;;;3.38;71.74
7168;BME280;3625;51.762;14.320;2023-03-01T10:53:49;102011.66;;;3.37;69.73
7168;BME280;3625;51.762;14.320;2023-03-01T10:56:19;102013.38;;;3.36;69.69
7168;BME280;3625;51.762;14.320;2023-03-01T10:58:59;102010.06;;;3.42;70.98
7168;BME280;3625;51.762;14.320;2023-03-01T11:01:33;102018.22;;;3.51;69.40
7168;BME280;3625;51.762;14.320;2023-03-01T11:04:13;102011.44;;;3.58;68.05
7168;BME280;3625;51.762;14.320;2023-03-01T11:06:42;101981.41;;;3.45;67.67
7168;BME280;3625;51.762;14.320;2023-03-01T11:09:17;101975.56;;;3.54;64.88
7168;BME280;3625;51.762;14.320;2023-03-01T11:11:52;101972.06;;;3.55;64.49
7168;BME280;3625;51.762;14.320;2023-03-01T11:14:23;101997.97;;;3.74;65.45
7168;BME280;3625;51.762;14.320;2023-03-01T11:17:04;102000.06;;;3.86;64.13
7168;BME280;3625;51.762;14.320;2023-03-01T11:19:34;101996.91;;;3.96;64.28
7168;BME280;3625;51.762;14.320;2023-03-01T11:22:07;101963.25;;;3.79;61.54
7168;BME280;3625;51.762;14.320;2023-03-01T11:24:43;101966.03;;;3.86;55.27
7168;BME280;3625;51.762;14.320;2023-03-01T11:27:22;102005.75;;;4.01;57.05
7168;BME280;3625;51.762;14.320;2023-03-01T11:29:57;101942.84;;;3.68;56.72
7168;BME280;3625;51.762;14.320;2023-03-01T11:32:38;102001.56;;;4.06;57.13
7168;BME280;3625;51.762;14.320;2023-03-01T11:35:17;101955.75;;;3.92;59.48
7168;BME280;3625;51.762;14.320;2023-03-01T11:38:02;101999.22;;;4.16;56.47
7168;BME280;3625;51.762;14.320;2023-03-01T11:40:37;101983.56;;;4.18;55.69
7168;BME280;3625;51.762;14.320;2023-03-01T11:43:16;101994.25;;;4.26;55.57
7168;BME280;3625;51.762;14.320;2023-03-01T11:46:46;101949.78;;;3.96;56.44
7168;BME280;3625;51.762;14.320;2023-03-01T11:50:00;101987.53;;;4.35;58.32
7168;BME280;3625;51.762;14.320;2023-03-01T11:52:43;101982.44;;;4.41;59.26
7168;BME280;3625;51.762;14.320;2023-03-01T11:55:30;101974.38;;;4.34;48.82
7168;BME280;3625;51.762;14.320;2023-03-01T11:58:27;101998.44;;;4.50;50.15
7168;BME280;3625;51.762;14.320;2023-03-01T12:01:17;101971.13;;;4.42;48.73
7168;BME280;3625;51.762;14.320;2023-03-01T12:04:30;101981.25;;;4.62;50.24
7168;BME280;3625;51.762;14.320;2023-03-01T12:07:11;101989.81;;;4.54;51.22
7168;BME280;3625;51.762;14.320;2023-03-01T12:10:10;101992.53;;;4.58;51.95
7168;BME280;3625;51.762;14.320;2023-03-01T12:13:12;101934.19;;;4.32;52.26
7168;BME280;3625;51.762;14.320;2023-03-01T12:16:15;101987.78;;;4.77;52.67
7168;BME280;3625;51.762;14.320;2023-03-01T12:19:33;101936.50;;;4.54;52.14
7168;BME280;3625;51.762;14.320;2023-03-01T12:22:24;101909.97;;;4.40;51.72
7168;BME280;3625;51.762;14.320;2023-03-01T12:25:20;101953.59;;;4.73;51.12
7168;BME280;3625;51.762;14.320;2023-03-01T12:28:04;101974.13;;;4.89;49.84
7168;BME280;3625;51.762;14.320;2023-03-01T12:30:54;101967.25;;;4.94;50.86
7168;BME280;3625;51.762;14.320;2023-03-01T12:33:41;101965.91;;;5.10;49.75
7168;BME280;3625;51.762;14.320;2023-03-01T12:36:35;101973.03;;;5.15;49.51
7168;BME280;3625;51.762;14.320;2023-03-01T12:39:38;101961.50;;;5.10;50.86
7168;BME280;3625;51.762;14.320;2023-03-01T12:42:25;101957.28;;;5.15;49.75
7168;BME280;3625;51.762;14.320;2023-03-01T12:45:21;101959.09;;;5.18;50.84
7168;BME280;3625;51.762;14.320;2023-03-01T12:48:13;101954.97;;;5.27;49.43
7168;BME280;3625;51.762;14.320;2023-03-01T12:50:49;101943.78;;;5.36;49.12
7168;BME280;3625;51.762;14.320;2023-03-01T12:53:26;101937.88;;;5.45;48.80
7168;BME280;3625;51.762;14.320;2023-03-01T12:56:01;101897.84;;;5.16;48.61
7168;BME280;3625;51.762;14.320;2023-03-01T12:58:35;101933.44;;;5.42;48.26
7168;BME280;3625;51.762;14.320;2023-03-01T13:01:33;101930.00;;;5.45;46.63
7168;BME280;3625;51.762;14.320;2023-03-01T13:04:17;101819.28;;;4.84;46.54
7168;BME280;3625;51.762;14.320;2023-03-01T13:06:59;101910.06;;;5.54;44.65
7168;BME280;3625;51.762;14.320;2023-03-01T13:09:40;101922.50;;;5.63;44.48
7168;BME280;3625;51.762;14.320;2023-03-01T13:12:45;101913.66;;;5.58;45.07
7168;BME280;3625;51.762;14.320;2023-03-01T13:15:34;101915.41;;;5.59;45.66
7168;BME280;3625;51.762;14.320;2023-03-01T13:18:28;101909.38;;;5.63;45.09
7168;BME280;3625;51.762;14.320;2023-03-01T13:21:01;101902.41;;;5.65;46.02
7168;BME280;3625;51.762;14.320;2023-03-01T13:23:34;101891.03;;;5.64;44.88
7168;BME280;3625;51.762;14.320;2023-03-01T13:26:09;101903.53;;;5.76;45.31
7168;BME280;3625;51.762;14.320;2023-03-01T13:28:53;101890.97;;;5.61;45.28
7168;BME280;3625;51.762;14.320;2023-03-01T13:31:59;101873.41;;;5.59;45.52
7168;BME280;3625;51.762;14.320;2023-03-01T13:34:54;101894.75;;;5.76;44.93